Terminal Aerodrome Forecast
Issued by NWS

Home | Current Version | Previous Version | Graphics & Text | Print | Product List | Glossary On
Versions: 1 2 3 4 5 6 7 8 9 10 11 12 13 14 15 16 17 18 19 20 21 22
946
FTUS43 KTOP 152333
TAFFOE
TAF
KFOE 152333Z 1600/1624 14008KT P6SM SCT150
     FM160600 15007KT P6SM VCTS BKN080CB
     FM161200 15007KT P6SM -SHRA VCTS OVC022CB
     FM161700 19008KT P6SM -SHRA VCTS OVC040CB=

USA.gov is the U.S. government's official web portal to all federal, state and local government web resources and services.